Airfield :
LOGIN :

Register | Disclaimer

   EN    FR    IT 

 










Legend :    VFR   Marginal VFR   IFR   Intensive IFR   Very Intensive IFR
Visi :
Ceiling :
>= 8 km
>= 3000ft
5 to 8 km
1000 to 3000 ft
1500m to 5 km
500 to 1000 ft
800 to 1500m
200 to 500 ft
< 800m
< 200 ft
Symbols :   Thunderstorms  Fog  Heavy snow  Heavy precipitations  Wind > 20 kt
SIGMETs :     Misc.  Thunderstorms  Icing  Turbulence  Mountain Waves  Volcanic Ashes







- Airport Elevation : 22 ft
- IATA code : LDY
- Download approach charts


EGAE - Londonderry Eglington

CURRENT METAR :
  • 211120Z 23011KT 7000 VCSH FEW006 SCT011 BKN032 14/11 Q1029

EXPIRED METARs :
  • 211050Z 24014KT 9999 8000W VCSH FEW009 BKN014 BKN033 13/11 Q1029
  • 211020Z 23014KT 9999 VCSH FEW009 BKN014 13/10 Q1029
  • 210950Z 23013KT 9999 BKN012 13/10 Q1029
  • 210920Z 23011KT 9999 VCSH SCT007 BKN012 13/10 Q1029
  • 210850Z 23012KT 9999 VCSH FEW007 BKN012 BKN027 12/10 Q1029

TAF TAF EGAE
Valid from the 21 at 12:00 until the 21 at 21:00 UTC


211100Z 2112/2121 22012KT 9999 FEW012 BKN028
TEMPO 2112/2115 BKN014
TEMPO 2117/2121 20015G25KT
No reported NOTAMs for that airfield.



MET'MAP, your aeronautical weather chart ! - Copyright ORBIFLY December 2007 - Disclaimer

ORBIFLY MET'MAP TEAM :

Programming & Development : Alexandra Zaïnal
Concept & Development : Baudouin d'Aumeries
Co-Development & Prog : Marc-Olivier Méhu
Technical & hardware support : Manuel Goepfert

Contact : metmap@orbifly.com




SOURCES & CREDITS :

   NOAA